Time;durP1;ratioP1;P1;durP2;ratioP2;P2;SDS_P1;SDS_P2;PMS_P1;PMS_P2;Temp;Humidity;BMP_temperature;BMP_pressure;BME280_temperature;BME280_humidity;BME280_pressure;Samples;Min_cycle;Max_cycle;Signal;HPM_P1;HPM_P2
2023/07/11 00:01:21;;;;;;;13.20;6.85;;;17.70;99.90;;;;;;4975763;28;20077;-65
2023/07/11 00:03:47;;;;;;;10.98;5.75;;;17.70;99.90;;;;;;4975290;28;20077;-65
2023/07/11 00:06:16;;;;;;;11.98;6.20;;;17.60;99.90;;;;;;4975350;28;20551;-66
2023/07/11 00:08:42;;;;;;;9.93;4.70;;;17.60;99.90;;;;;;4956579;28;20038;-66
2023/07/11 00:11:10;;;;;;;11.40;6.07;;;17.50;99.90;;;;;;4974827;28;20096;-65
2023/07/11 00:13:39;;;;;;;11.77;5.45;;;17.50;99.90;;;;;;4974743;28;20488;-66
2023/07/11 00:16:08;;;;;;;9.90;4.85;;;17.40;99.90;;;;;;4974949;28;20035;-65
2023/07/11 00:18:34;;;;;;;8.63;4.30;;;17.40;99.90;;;;;;4975052;28;20085;-66
2023/07/11 00:21:00;;;;;;;7.40;4.38;;;17.30;99.90;;;;;;4975089;28;20377;-66
2023/07/11 00:23:26;;;;;;;9.80;5.13;;;17.30;99.90;;;;;;4974722;28;20045;-66
2023/07/11 00:25:52;;;;;;;7.25;3.83;;;17.30;99.90;;;;;;4974603;28;20035;-66
2023/07/11 00:28:18;;;;;;;9.52;3.70;;;17.30;99.90;;;;;;4975024;28;20059;-65
2023/07/11 00:30:44;;;;;;;9.90;5.13;;;17.30;99.90;;;;;;4975170;28;20065;-65
2023/07/11 00:33:10;;;;;;;8.77;4.80;;;17.30;99.90;;;;;;4974867;28;20023;-65
2023/07/11 00:35:43;;;;;;;7.25;4.80;;;17.30;99.90;;;;;;4974627;28;20034;-67
2023/07/11 00:38:08;;;;;;;10.02;4.18;;;17.30;99.90;;;;;;4974547;28;20110;-65
2023/07/11 00:40:43;;;;;;;11.77;4.65;;;17.40;99.90;;;;;;4974771;28;20166;-65
2023/07/11 00:43:14;;;;;;;10.15;4.20;;;17.30;99.90;;;;;;4974591;28;20026;-65
2023/07/11 00:46:04;;;;;;;6.97;3.90;;;17.20;99.90;;;;;;4974439;28;20037;-65
2023/07/11 00:48:34;;;;;;;9.15;3.83;;;17.20;99.90;;;;;;4974290;28;20023;-65
2023/07/11 00:51:00;;;;;;;5.20;3.00;;;17.10;99.90;;;;;;4957397;28;20130;-66
2023/07/11 00:53:27;;;;;;;5.30;2.63;;;17.00;99.90;;;;;;4974595;28;20389;-65
2023/07/11 00:55:54;;;;;;;5.53;2.42;;;17.00;99.90;;;;;;4974355;28;20077;-65
2023/07/11 00:58:22;;;;;;;5.43;3.25;;;17.10;99.90;;;;;;4974301;28;20023;-66
2023/07/11 01:00:48;;;;;;;7.20;2.38;;;17.20;99.90;;;;;;4974295;28;20027;-65
2023/07/11 01:03:14;;;;;;;12.02;2.70;;;17.20;99.90;;;;;;4974170;28;20089;-66
2023/07/11 01:05:40;;;;;;;4.35;2.58;;;17.30;99.90;;;;;;4974150;28;20030;-65
2023/07/11 01:08:06;;;;;;;2.92;1.95;;;17.40;99.90;;;;;;4974110;28;20027;-65
2023/07/11 01:10:32;;;;;;;8.38;2.20;;;17.30;99.90;;;;;;4956882;28;20026;-65
2023/07/11 01:13:01;;;;;;;3.80;2.22;;;17.30;99.90;;;;;;4974053;28;20054;-66
2023/07/11 01:15:26;;;;;;;4.72;2.15;;;17.30;99.90;;;;;;4973958;28;20488;-65
2023/07/11 01:17:52;;;;;;;5.05;2.60;;;17.40;99.90;;;;;;4973784;28;20034;-66
2023/07/11 01:20:18;;;;;;;4.30;2.25;;;17.40;99.90;;;;;;4974016;28;20025;-65
2023/07/11 01:22:43;;;;;;;6.22;2.47;;;17.40;99.90;;;;;;4973457;28;20037;-65
2023/07/11 01:25:14;;;;;;;5.90;2.28;;;17.30;99.90;;;;;;4974468;28;20392;-65
2023/07/11 01:27:45;;;;;;;3.25;2.22;;;17.40;99.90;;;;;;4973644;28;20023;-65
2023/07/11 01:30:13;;;;;;;7.60;2.30;;;17.30;99.90;;;;;;4973830;28;20081;-64
2023/07/11 01:32:39;;;;;;;5.97;3.03;;;17.20;99.90;;;;;;4973714;28;20078;-65
2023/07/11 01:35:05;;;;;;;5.15;2.25;;;17.20;99.90;;;;;;4956176;28;20022;-65
2023/07/11 01:37:31;;;;;;;5.78;2.88;;;17.20;99.90;;;;;;4973295;28;20033;-65
2023/07/11 01:39:57;;;;;;;9.88;2.85;;;17.10;99.90;;;;;;4973723;28;20034;-65
2023/07/11 01:42:24;;;;;;;7.30;2.25;;;17.10;99.90;;;;;;4973523;28;20038;-65
2023/07/11 01:44:50;;;;;;;6.88;1.98;;;17.10;99.90;;;;;;4956210;28;20019;-65
2023/07/11 01:47:15;;;;;;;2.97;1.85;;;17.10;99.90;;;;;;4973306;28;20038;-65
2023/07/11 01:49:41;;;;;;;4.90;1.80;;;17.00;99.90;;;;;;4973472;28;20057;-65
2023/07/11 01:52:21;;;;;;;4.93;2.10;;;17.00;99.90;;;;;;4973501;28;20033;-65
2023/07/11 01:54:47;;;;;;;4.53;2.38;;;16.90;99.90;;;;;;4973412;28;20389;-65
2023/07/11 01:57:13;;;;;;;4.22;1.85;;;16.90;99.90;;;;;;4955572;28;20484;-65
2023/07/11 01:59:39;;;;;;;3.22;1.80;;;16.90;99.90;;;;;;4973361;28;20440;-65
2023/07/11 02:02:07;;;;;;;4.40;2.20;;;17.00;99.90;;;;;;4973335;28;20050;-65
2023/07/11 02:04:33;;;;;;;5.53;2.63;;;16.90;99.90;;;;;;4973203;28;20051;-65
2023/07/11 02:06:59;;;;;;;5.63;1.75;;;16.90;99.90;;;;;;4973040;28;20081;-64
2023/07/11 02:09:24;;;;;;;5.60;2.38;;;16.90;99.90;;;;;;4973207;28;20062;-65
2023/07/11 02:11:50;;;;;;;5.00;2.08;;;16.90;99.90;;;;;;4973169;28;20121;-65
2023/07/11 02:14:19;;;;;;;3.95;2.00;;;16.90;99.90;;;;;;4973092;28;20050;-65
2023/07/11 02:16:48;;;;;;;5.40;2.42;;;16.90;99.90;;;;;;4972734;28;20511;-64
2023/07/11 02:19:17;;;;;;;8.25;2.08;;;16.90;99.90;;;;;;4973030;28;20427;-65
2023/07/11 02:21:43;;;;;;;6.57;2.40;;;16.90;99.90;;;;;;4972926;28;20054;-65
2023/07/11 02:24:11;;;;;;;3.08;2.25;;;17.00;99.90;;;;;;4972900;28;20539;-65
2023/07/11 02:26:37;;;;;;;6.15;2.08;;;17.00;99.90;;;;;;4972754;28;20034;-65
2023/07/11 02:29:03;;;;;;;2.75;1.73;;;17.00;99.90;;;;;;4973005;28;20034;-65
2023/07/11 02:31:31;;;;;;;7.97;2.40;;;16.90;99.90;;;;;;4972972;28;20110;-65
2023/07/11 02:33:57;;;;;;;7.80;1.85;;;16.90;99.90;;;;;;4972786;28;20044;-65
2023/07/11 02:36:22;;;;;;;6.63;1.65;;;16.80;99.90;;;;;;4958385;28;20062;-65
2023/07/11 02:38:48;;;;;;;2.90;1.83;;;16.90;99.90;;;;;;4976746;28;20057;-65
2023/07/11 02:41:14;;;;;;;4.00;2.40;;;16.80;99.90;;;;;;4976894;28;20520;-65
2023/07/11 02:43:39;;;;;;;6.90;1.98;;;16.80;99.90;;;;;;4976988;28;20038;-65
2023/07/11 02:46:05;;;;;;;3.00;2.15;;;16.80;99.90;;;;;;4976688;28;20026;-65
2023/07/11 02:48:31;;;;;;;5.40;1.73;;;16.70;99.90;;;;;;4976406;28;20273;-65
2023/07/11 02:50:56;;;;;;;3.88;2.30;;;16.70;99.90;;;;;;4977078;28;20033;-64
2023/07/11 02:53:22;;;;;;;5.90;2.35;;;16.70;99.90;;;;;;4976650;28;20035;-65
2023/07/11 02:55:51;;;;;;;5.35;2.05;;;16.70;99.90;;;;;;4976705;28;20078;-65
2023/07/11 02:58:16;;;;;;;4.45;1.83;;;16.80;99.90;;;;;;4959154;28;20022;-64
2023/07/11 03:00:49;;;;;;;3.22;1.75;;;16.80;99.90;;;;;;4976529;28;20037;-65
2023/07/11 03:03:15;;;;;;;4.17;1.90;;;16.90;99.90;;;;;;4976472;28;20023;-64
2023/07/11 03:05:45;;;;;;;7.38;2.17;;;16.80;99.90;;;;;;4976427;28;20074;-64
2023/07/11 03:08:12;;;;;;;4.95;1.67;;;16.80;99.90;;;;;;4976299;28;20082;-65
2023/07/11 03:10:37;;;;;;;4.30;2.15;;;16.60;99.90;;;;;;4976428;28;20022;-64
2023/07/11 03:13:03;;;;;;;6.43;2.28;;;16.60;99.90;;;;;;4976266;28;20448;-65
2023/07/11 03:15:29;;;;;;;3.72;2.00;;;16.60;99.90;;;;;;4976209;28;20035;-65
2023/07/11 03:17:54;;;;;;;5.18;1.85;;;16.60;99.90;;;;;;4975994;28;20058;-64
2023/07/11 03:20:20;;;;;;;3.83;1.80;;;16.60;99.90;;;;;;4976256;28;20023;-65
2023/07/11 03:22:46;;;;;;;5.50;2.33;;;16.60;99.90;;;;;;4975905;28;20035;-65
2023/07/11 03:25:11;;;;;;;4.97;2.20;;;16.60;99.90;;;;;;4976174;28;20077;-65
2023/07/11 03:27:37;;;;;;;6.75;2.50;;;16.50;99.90;;;;;;4975748;28;20030;-65
2023/07/11 03:30:03;;;;;;;8.18;2.00;;;16.50;99.90;;;;;;4976086;28;20365;-65
2023/07/11 03:32:29;;;;;;;4.95;1.95;;;16.50;99.90;;;;;;4975879;28;20046;-65
2023/07/11 03:34:54;;;;;;;3.92;1.55;;;16.60;99.90;;;;;;4975825;28;20031;-65
2023/07/11 03:37:20;;;;;;;2.88;1.98;;;16.50;99.90;;;;;;4975551;28;20031;-65
2023/07/11 03:39:46;;;;;;;3.47;2.00;;;16.60;99.90;;;;;;4975848;28;20019;-65
2023/07/11 03:42:11;;;;;;;4.15;2.42;;;16.60;99.90;;;;;;4975761;28;20400;-65
2023/07/11 03:44:38;;;;;;;4.03;1.90;;;16.70;99.90;;;;;;4975617;28;20074;-64
2023/07/11 03:47:04;;;;;;;3.63;1.80;;;16.70;99.90;;;;;;4975471;28;20035;-64
2023/07/11 03:49:29;;;;;;;3.17;1.80;;;16.70;99.90;;;;;;4975629;28;20109;-65
2023/07/11 03:51:55;;;;;;;4.28;1.95;;;16.80;99.90;;;;;;4975532;28;20035;-65
2023/07/11 03:54:23;;;;;;;5.50;2.13;;;16.80;99.90;;;;;;4975553;28;20030;-65
2023/07/11 03:56:52;;;;;;;5.25;2.42;;;16.90;99.90;;;;;;4975221;28;20027;-65
2023/07/11 03:59:18;;;;;;;5.88;2.40;;;17.00;99.90;;;;;;4975544;28;20544;-64
2023/07/11 04:01:44;;;;;;;3.90;2.45;;;17.10;99.90;;;;;;4975418;28;20023;-64
2023/07/11 04:04:10;;;;;;;6.07;1.83;;;17.20;99.90;;;;;;4975210;28;20038;-65
2023/07/11 04:06:35;;;;;;;3.40;2.15;;;17.20;99.90;;;;;;4975118;28;20077;-64
2023/07/11 04:09:01;;;;;;;5.18;2.05;;;17.30;99.90;;;;;;4975242;28;20054;-65
2023/07/11 04:11:26;;;;;;;5.45;1.90;;;17.40;99.90;;;;;;4957866;28;20027;-65
2023/07/11 04:13:52;;;;;;;4.10;2.25;;;17.50;99.90;;;;;;4975162;28;20046;-64
2023/07/11 04:16:17;;;;;;;3.58;1.90;;;17.50;99.90;;;;;;4975018;28;20094;-65
2023/07/11 04:18:43;;;;;;;4.70;1.80;;;17.50;99.90;;;;;;4974853;28;20029;-65
2023/07/11 04:21:08;;;;;;;4.70;2.13;;;17.60;99.90;;;;;;4975082;28;20102;-65
2023/07/11 04:23:34;;;;;;;6.03;2.42;;;17.60;99.90;;;;;;4974953;28;20035;-64
2023/07/11 04:26:00;;;;;;;3.13;1.77;;;17.70;99.90;;;;;;4974907;28;20035;-65
2023/07/11 04:28:25;;;;;;;3.42;1.83;;;17.80;99.90;;;;;;4974818;28;20080;-65
2023/07/11 04:30:51;;;;;;;4.35;2.35;;;17.80;99.90;;;;;;4974928;28;20029;-65
2023/07/11 04:33:16;;;;;;;3.95;2.03;;;17.90;99.90;;;;;;4974679;28;20090;-64
2023/07/11 04:35:44;;;;;;;4.40;1.80;;;18.00;99.90;;;;;;4974591;28;20401;-66
2023/07/11 04:38:09;;;;;;;4.60;2.40;;;18.20;99.90;;;;;;4957303;28;20038;-65
2023/07/11 04:40:35;;;;;;;8.07;2.20;;;18.50;99.90;;;;;;4974711;28;20487;-65
2023/07/11 04:43:01;;;;;;;8.52;1.80;;;19.50;99.90;;;;;;4974572;28;20026;-65
2023/07/11 04:45:27;;;;;;;4.18;1.80;;;20.80;99.90;;;;;;4974518;28;20504;-65
2023/07/11 04:47:52;;;;;;;4.15;1.70;;;22.30;99.90;;;;;;4974236;28;20031;-65
2023/07/11 04:50:18;;;;;;;2.70;1.35;;;23.30;98.40;;;;;;4974471;28;20505;-65
2023/07/11 04:52:44;;;;;;;3.45;1.63;;;24.60;95.70;;;;;;4974384;28;20034;-65
2023/07/11 04:55:10;;;;;;;2.45;1.60;;;25.60;93.00;;;;;;4974366;28;20031;-66
2023/07/11 04:57:35;;;;;;;3.50;1.73;;;25.70;92.60;;;;;;4973711;28;20062;-65
2023/07/11 05:00:02;;;;;;;3.13;1.30;;;26.50;91.50;;;;;;4956994;28;20031;-66
2023/07/11 05:02:27;;;;;;;2.08;1.48;;;26.60;90.20;;;;;;4974256;28;20022;-65
2023/07/11 05:04:53;;;;;;;3.58;1.65;;;27.20;88.70;;;;;;4974134;28;20026;-66
2023/07/11 05:07:19;;;;;;;3.33;1.50;;;27.60;88.30;;;;;;4974024;28;20058;-66
2023/07/11 05:09:44;;;;;;;3.58;1.25;;;28.30;86.50;;;;;;4974151;28;20101;-66
2023/07/11 05:12:10;;;;;;;2.50;1.13;;;28.50;82.80;;;;;;4974170;28;20035;-66
2023/07/11 05:14:36;;;;;;;5.10;1.40;;;28.60;82.90;;;;;;4956679;28;20026;-66
2023/07/11 05:17:02;;;;;;;2.42;1.17;;;28.40;81.80;;;;;;4973638;28;20069;-66
2023/07/11 05:19:28;;;;;;;3.33;1.50;;;28.70;82.50;;;;;;4973946;28;20066;-66
2023/07/11 05:21:53;;;;;;;2.85;1.00;;;29.10;80.50;;;;;;4973924;28;20054;-66
2023/07/11 05:24:19;;;;;;;5.80;1.50;;;29.90;80.60;;;;;;4956454;28;20031;-66
2023/07/11 05:26:44;;;;;;;3.47;1.70;;;30.00;79.60;;;;;;4973653;28;20087;-66
2023/07/11 05:29:10;;;;;;;4.07;1.38;;;29.80;77.60;;;;;;4973889;28;20030;-66
2023/07/11 05:31:35;;;;;;;1.80;1.33;;;30.20;79.10;;;;;;4973763;28;20030;-66
2023/07/11 05:34:01;;;;;;;2.70;1.58;;;29.70;77.30;;;;;;4973646;28;20034;-66
2023/07/11 05:36:31;;;;;;;2.80;1.42;;;29.40;77.80;;;;;;4973545;28;20388;-66
2023/07/11 05:39:10;;;;;;;1.63;1.20;;;30.50;77.20;;;;;;4973558;28;20490;-66
2023/07/11 05:41:37;;;;;;;3.65;1.92;;;30.00;76.40;;;;;;4973505;28;20481;-66
2023/07/11 05:44:03;;;;;;;2.50;1.52;;;30.70;75.70;;;;;;4955961;28;20400;-66
2023/07/11 05:46:29;;;;;;;2.85;2.00;;;30.80;75.50;;;;;;4973313;28;20033;-66
2023/07/11 05:48:56;;;;;;;3.53;1.50;;;30.50;75.30;;;;;;4973352;28;20049;-66
2023/07/11 05:51:22;;;;;;;3.35;1.73;;;30.70;75.00;;;;;;4973422;28;20169;-66
2023/07/11 05:53:50;;;;;;;3.47;1.30;;;30.80;75.40;;;;;;4955912;28;20184;-65
2023/07/11 05:56:18;;;;;;;4.00;1.92;;;30.80;75.60;;;;;;4973154;28;20055;-66
2023/07/11 05:58:45;;;;;;;3.05;1.52;;;31.50;73.90;;;;;;4973109;28;20022;-66
2023/07/11 06:01:17;;;;;;;6.72;1.50;;;32.30;73.20;;;;;;4973091;28;20022;-66
2023/07/11 06:03:45;;;;;;;4.90;1.88;;;32.80;71.90;;;;;;4973227;28;20405;-66
2023/07/11 06:06:13;;;;;;;3.15;1.63;;;32.50;70.90;;;;;;4955724;28;20027;-66
2023/07/11 06:08:38;;;;;;;2.80;1.52;;;33.00;70.80;;;;;;4973053;28;20023;-66
2023/07/11 06:11:05;;;;;;;4.85;1.55;;;33.70;69.30;;;;;;4972332;28;20031;-66
2023/07/11 06:13:34;;;;;;;3.60;1.70;;;33.90;69.10;;;;;;4972925;28;20046;-66
2023/07/11 06:16:16;;;;;;;3.35;1.83;;;34.60;67.50;;;;;;4972636;28;20102;-66
2023/07/11 06:18:42;;;;;;;3.53;1.33;;;34.10;66.10;;;;;;4972909;28;20102;-66
2023/07/11 06:21:10;;;;;;;1.58;1.45;;;32.90;69.10;;;;;;4972940;28;20066;-66
2023/07/11 06:23:36;;;;;;;2.10;1.33;;;34.60;67.70;;;;;;4955487;28;20027;-66
2023/07/11 06:26:03;;;;;;;6.63;1.60;;;34.50;68.00;;;;;;4972710;28;20041;-66
2023/07/11 06:28:30;;;;;;;3.90;2.60;;;35.30;66.80;;;;;;4972700;28;20026;-66
2023/07/11 06:30:57;;;;;;;9.70;1.52;;;36.20;66.00;;;;;;4972898;28;20038;-66
2023/07/11 06:33:23;;;;;;;5.85;1.98;;;35.50;65.40;;;;;;4972879;28;20022;-66
2023/07/11 06:35:49;;;;;;;2.83;1.40;;;34.90;63.90;;;;;;4972566;28;20389;-66
2023/07/11 06:38:16;;;;;;;4.40;2.03;;;34.50;66.90;;;;;;4972702;28;20553;-66
2023/07/11 06:40:51;;;;;;;2.08;1.52;;;35.00;66.10;;;;;;4972866;28;20062;-66
2023/07/11 06:43:17;;;;;;;4.10;1.75;;;34.90;65.00;;;;;;4972773;28;20074;-66
2023/07/11 06:45:48;;;;;;;3.33;1.60;;;35.20;65.50;;;;;;4972694;28;20109;-66
2023/07/11 06:48:15;;;;;;;6.13;1.70;;;35.10;64.80;;;;;;4972730;28;20015;-66
2023/07/11 06:50:41;;;;;;;7.13;1.80;;;35.50;63.50;;;;;;4972700;28;20393;-66
2023/07/11 06:53:07;;;;;;;2.40;1.48;;;35.70;64.10;;;;;;4972477;28;20019;-66
2023/07/11 06:55:33;;;;;;;2.55;1.73;;;36.40;64.80;;;;;;4972485;28;20030;-66
2023/07/11 06:57:58;;;;;;;4.18;2.13;;;36.30;64.50;;;;;;4972367;28;20027;-66
2023/07/11 07:00:25;;;;;;;2.40;1.60;;;35.80;64.00;;;;;;4972585;28;20019;-66
2023/07/11 07:02:51;;;;;;;2.50;1.80;;;35.30;63.20;;;;;;4955294;28;20029;-66
2023/07/11 07:05:17;;;;;;;2.25;1.55;;;34.70;64.40;;;;;;4972617;28;20019;-66
2023/07/11 07:07:42;;;;;;;2.08;1.73;;;35.10;64.90;;;;;;4972203;28;20019;-66
2023/07/11 07:10:08;;;;;;;2.80;2.03;;;35.00;63.20;;;;;;4972500;28;20041;-66
2023/07/11 07:12:34;;;;;;;3.72;1.75;;;34.70;64.60;;;;;;4972514;28;20030;-66
2023/07/11 07:14:59;;;;;;;5.68;2.00;;;35.10;63.90;;;;;;4972512;28;20027;-66
2023/07/11 07:17:25;;;;;;;4.82;1.95;;;34.60;65.50;;;;;;4972322;28;20030;-66
2023/07/11 07:19:51;;;;;;;8.15;1.90;;;34.40;64.70;;;;;;4972573;28;20023;-66
2023/07/11 07:22:16;;;;;;;2.35;1.60;;;34.10;64.40;;;;;;4957533;28;20074;-66
2023/07/11 07:24:43;;;;;;;3.20;1.63;;;34.00;65.60;;;;;;4987868;23;20047;-66
2023/07/11 07:27:10;;;;;;;3.25;2.17;;;34.90;65.80;;;;;;4975195;28;20022;-65
2023/07/11 07:29:35;;;;;;;2.45;1.80;;;35.30;64.80;;;;;;4976052;28;20042;-65
2023/07/11 07:32:01;;;;;;;2.70;1.83;;;35.80;65.40;;;;;;4975907;28;20026;-66
2023/07/11 07:34:26;;;;;;;2.63;1.73;;;36.60;64.70;;;;;;4975879;28;20404;-65
2023/07/11 07:36:52;;;;;;;2.90;1.80;;;36.70;63.80;;;;;;4975576;28;20035;-66
2023/07/11 07:39:18;;;;;;;4.65;2.03;;;37.90;61.40;;;;;;4975794;28;20103;-65
2023/07/11 07:41:43;;;;;;;2.95;1.70;;;37.40;63.00;;;;;;4958375;28;20037;-66
2023/07/11 07:44:09;;;;;;;2.40;1.75;;;38.20;61.30;;;;;;4975687;28;20070;-65
2023/07/11 07:46:34;;;;;;;3.28;1.63;;;37.90;61.00;;;;;;4975516;28;20023;-64
2023/07/11 07:49:00;;;;;;;4.00;2.13;;;38.20;60.50;;;;;;4975617;28;20037;-65
2023/07/11 07:51:26;;;;;;;2.38;2.10;;;37.60;59.90;;;;;;4958302;28;20031;-64
2023/07/11 07:53:51;;;;;;;2.22;1.98;;;37.30;60.30;;;;;;4975501;28;20389;-65
2023/07/11 07:56:20;;;;;;;5.80;2.03;;;37.30;60.40;;;;;;4975254;28;20029;-66
2023/07/11 07:58:46;;;;;;;2.80;2.00;;;37.10;61.80;;;;;;4975184;28;20489;-66
2023/07/11 08:01:14;;;;;;;5.22;2.38;;;37.90;61.90;;;;;;4975407;28;20058;-66
2023/07/11 08:03:39;;;;;;;3.65;1.95;;;38.50;60.90;;;;;;4975343;28;20042;-67
2023/07/11 08:06:06;;;;;;;3.47;2.10;;;38.50;60.20;;;;;;4975266;28;20047;-65
2023/07/11 08:08:31;;;;;;;2.55;1.80;;;38.80;59.90;;;;;;4975186;28;20118;-67
2023/07/11 08:11:01;;;;;;;2.30;2.10;;;38.00;58.80;;;;;;4975352;28;20500;-65
2023/07/11 08:13:27;;;;;;;9.98;1.98;;;39.20;58.50;;;;;;4975213;28;20027;-65
2023/07/11 08:15:53;;;;;;;2.08;1.77;;;38.70;59.10;;;;;;4974863;28;20027;-65
2023/07/11 08:18:19;;;;;;;3.05;2.33;;;39.60;58.40;;;;;;4974919;28;20354;-65
2023/07/11 08:20:44;;;;;;;4.65;1.98;;;39.50;57.70;;;;;;4975167;28;20077;-66
2023/07/11 08:23:10;;;;;;;4.20;1.58;;;38.60;58.20;;;;;;4975067;28;20023;-67
2023/07/11 08:25:36;;;;;;;3.13;1.60;;;39.90;57.80;;;;;;4974892;28;20121;-65
2023/07/11 08:28:05;;;;;;;3.47;2.00;;;39.40;57.80;;;;;;4974771;28;20029;-66
2023/07/11 08:30:35;;;;;;;2.67;1.80;;;39.60;57.40;;;;;;4974827;28;20062;-65
2023/07/11 08:33:01;;;;;;;2.08;1.80;;;39.70;58.10;;;;;;4974005;28;20492;-65
2023/07/11 08:35:27;;;;;;;2.67;1.90;;;39.80;57.20;;;;;;4974680;28;20035;-66
2023/07/11 08:37:52;;;;;;;5.93;2.10;;;40.20;56.00;;;;;;4974596;28;20023;-66
2023/07/11 08:40:23;;;;;;;4.32;2.17;;;39.40;57.80;;;;;;4974750;28;20105;-65
2023/07/11 08:42:48;;;;;;;4.78;2.00;;;38.90;57.20;;;;;;4974697;28;20184;-65
2023/07/11 08:45:24;;;;;;;6.35;2.03;;;38.50;56.20;;;;;;4974544;28;20118;-65
2023/07/11 08:48:09;;;;;;;5.38;2.05;;;38.00;57.50;;;;;;4974283;28;20029;-66
2023/07/11 08:50:53;;;;;;;3.03;2.13;;;38.40;58.70;;;;;;4974621;28;20027;-65
2023/07/11 08:53:23;;;;;;;4.20;1.70;;;38.40;57.20;;;;;;4974330;28;20031;-65
2023/07/11 08:55:52;;;;;;;2.72;1.80;;;39.00;58.30;;;;;;4974455;28;20077;-65
2023/07/11 08:58:25;;;;;;;3.83;1.75;;;38.50;59.30;;;;;;4974259;28;20057;-66
2023/07/11 09:00:51;;;;;;;4.32;2.17;;;38.60;59.60;;;;;;4974333;28;20023;-63
2023/07/11 09:03:26;;;;;;;4.00;1.95;;;39.30;58.40;;;;;;4974150;28;20027;-65
2023/07/11 09:05:57;;;;;;;3.78;2.17;;;38.80;57.70;;;;;;4974068;28;20055;-66
2023/07/11 09:08:23;;;;;;;7.00;1.88;;;38.60;56.50;;;;;;4974115;28;20035;-65
2023/07/11 09:11:24;;;;;;;5.20;1.90;;;38.50;57.20;;;;;;4974193;28;20535;-66
2023/07/11 09:14:26;;;;;;;6.43;1.85;;;38.40;56.60;;;;;;4974103;28;20441;-67
2023/07/11 09:17:29;;;;;;;3.42;2.15;;;38.20;56.20;;;;;;4910352;28;20047;-65
2023/07/11 09:20:01;;;;;;;2.80;1.80;;;37.40;57.80;;;;;;4914917;28;20031;-66
2023/07/11 09:22:35;;;;;;;;;;;38.50;57.50;;;;;;4974394;28;20027;-66
2023/07/11 09:25:32;;;;;;;3.70;2.00;;;38.10;58.70;;;;;;4956231;28;19941;-66
2023/07/11 09:28:05;;;;;;;4.32;2.45;;;37.80;57.90;;;;;;4973539;28;20027;-65
2023/07/11 09:30:55;;;;;;;2.95;1.80;;;37.80;57.80;;;;;;4973811;28;20077;-66
2023/07/11 09:33:22;;;;;;;8.15;2.33;;;38.80;57.60;;;;;;4973659;28;20027;-65
2023/07/11 09:35:50;;;;;;;7.38;2.47;;;39.30;55.80;;;;;;4973405;28;20037;-65
2023/07/11 09:38:27;;;;;;;5.45;2.28;;;39.80;55.90;;;;;;4973489;28;20492;-65
2023/07/11 09:41:18;;;;;;;9.05;2.17;;;39.50;55.50;;;;;;4973664;28;20057;-66
2023/07/11 09:43:43;;;;;;;2.78;2.20;;;39.00;55.10;;;;;;4973394;28;20023;-66
2023/07/11 09:46:16;;;;;;;4.05;1.95;;;38.70;56.10;;;;;;4973349;28;20514;-65
2023/07/11 09:48:44;;;;;;;5.25;2.20;;;38.90;56.50;;;;;;4973379;28;20408;-65
2023/07/11 09:51:44;;;;;;;8.07;1.95;;;37.70;57.40;;;;;;4973461;28;20102;-65
2023/07/11 09:54:18;;;;;;;3.50;1.88;;;37.70;56.90;;;;;;4973174;28;20031;-67
2023/07/11 09:56:45;;;;;;;4.82;1.98;;;38.20;59.00;;;;;;4972919;28;20097;-65
2023/07/11 09:59:12;;;;;;;4.25;2.30;;;38.00;57.20;;;;;;4973212;28;20082;-65
2023/07/11 10:01:38;;;;;;;9.20;2.15;;;37.60;56.10;;;;;;4973287;28;20034;-65
2023/07/11 10:04:12;;;;;;;4.72;2.10;;;36.90;56.20;;;;;;4973162;28;20035;-67
2023/07/11 10:06:42;;;;;;;4.88;2.25;;;36.50;56.70;;;;;;4973029;28;20023;-66
2023/07/11 10:09:14;;;;;;;6.50;2.33;;;36.90;57.70;;;;;;4973129;28;20030;-65
2023/07/11 10:11:39;;;;;;;3.50;1.90;;;37.60;58.00;;;;;;4973138;28;20062;-65
2023/07/11 10:14:08;;;;;;;3.97;2.33;;;37.60;57.60;;;;;;4973113;28;20449;-65
2023/07/11 10:16:34;;;;;;;6.93;2.50;;;37.30;56.80;;;;;;4972767;28;20022;-63
2023/07/11 10:18:59;;;;;;;4.65;2.58;;;36.10;58.60;;;;;;4973078;28;20033;-65
2023/07/11 10:21:27;;;;;;;2.70;1.85;;;35.40;58.20;;;;;;4955589;28;20018;-64
2023/07/11 10:23:53;;;;;;;3.08;2.13;;;35.30;60.70;;;;;;4972707;28;20122;-65
2023/07/11 10:26:23;;;;;;;5.32;2.40;;;35.10;59.70;;;;;;4972835;28;20504;-65
2023/07/11 10:29:00;;;;;;;4.22;2.30;;;35.30;60.80;;;;;;4955498;28;20066;-65
2023/07/11 10:31:35;;;;;;;5.57;2.35;;;35.10;59.60;;;;;;4955591;28;20039;-65
2023/07/11 10:34:38;;;;;;;3.22;1.90;;;35.10;58.80;;;;;;4972900;28;20393;-65
2023/07/11 10:37:23;;;;;;;3.47;1.92;;;35.00;60.20;;;;;;4909217;28;20039;-65
2023/07/11 10:39:53;;;;;;;8.20;2.47;;;34.40;59.40;;;;;;4972882;28;20142;-65
2023/07/11 10:42:38;;;;;;;5.25;2.13;;;34.40;60.30;;;;;;4972966;28;20019;-65
2023/07/11 10:45:26;;;;;;;3.55;2.20;;;33.60;59.20;;;;;;4972767;28;20023;-66
2023/07/11 10:48:14;;;;;;;3.58;2.25;;;33.70;60.10;;;;;;4972759;28;20365;-65
2023/07/11 10:50:49;;;;;;;3.45;2.08;;;33.40;60.00;;;;;;4955435;28;20050;-65
2023/07/11 10:53:24;;;;;;;5.68;2.28;;;33.60;60.80;;;;;;4972779;28;20105;-65
2023/07/11 10:55:58;;;;;;;5.50;2.15;;;33.90;61.40;;;;;;4972875;28;20062;-65
2023/07/11 10:58:24;;;;;;;11.40;2.67;;;34.30;60.60;;;;;;4976588;28;20019;-65
2023/07/11 11:01:10;;;;;;;5.65;3.15;;;34.20;60.80;;;;;;4976606;28;20094;-65
2023/07/11 11:03:38;;;;;;;4.05;2.50;;;33.90;59.80;;;;;;4976492;28;20089;-65
2023/07/11 11:06:13;;;;;;;5.53;3.17;;;33.60;57.90;;;;;;4976298;28;20061;-64
2023/07/11 11:08:44;;;;;;;4.95;2.72;;;33.40;59.80;;;;;;4976519;28;20027;-66
2023/07/11 11:11:33;;;;;;;5.55;2.85;;;33.60;59.40;;;;;;4976452;28;20069;-65
2023/07/11 11:14:18;;;;;;;5.57;2.88;;;33.70;58.20;;;;;;4976122;28;20077;-66
2023/07/11 11:16:49;;;;;;;11.15;3.17;;;33.60;60.50;;;;;;4975821;28;20023;-63
2023/07/11 11:19:34;;;;;;;7.45;3.10;;;33.40;59.00;;;;;;4976100;28;20086;-65
2023/07/11 11:22:16;;;;;;;4.53;2.92;;;33.60;60.20;;;;;;4976085;28;20023;-64
2023/07/11 11:25:00;;;;;;;6.80;3.05;;;33.40;60.40;;;;;;4975827;28;20042;-66
2023/07/11 11:28:02;;;;;;;11.30;2.97;;;33.60;59.10;;;;;;4975588;28;20027;-64
2023/07/11 11:30:45;;;;;;;4.37;2.60;;;33.80;60.20;;;;;;4914029;28;20034;-65
2023/07/11 11:33:39;;;;;;;5.25;2.92;;;33.90;60.00;;;;;;4976088;28;20019;-65
2023/07/11 11:36:48;;;;;;;4.95;2.95;;;34.20;58.40;;;;;;4975838;28;20022;-65
2023/07/11 11:39:25;;;;;;;4.10;2.70;;;34.10;59.70;;;;;;4975663;28;20035;-66
2023/07/11 11:42:05;;;;;;;8.82;3.38;;;33.80;59.90;;;;;;4975934;28;20025;-65
2023/07/11 11:44:47;;;;;;;4.97;2.92;;;33.90;59.90;;;;;;4975715;28;20030;-65
2023/07/11 11:47:14;;;;;;;7.32;3.53;;;33.90;59.00;;;;;;4975592;28;20097;-65
2023/07/11 11:49:41;;;;;;;6.68;3.38;;;33.80;58.80;;;;;;4975814;28;20118;-64
2023/07/11 11:52:08;;;;;;;6.88;2.97;;;33.60;58.90;;;;;;4975597;28;20543;-64
2023/07/11 11:54:41;;;;;;;5.35;3.30;;;33.50;59.50;;;;;;4975440;28;20050;-62
2023/07/11 11:57:19;;;;;;;6.45;3.22;;;33.60;58.50;;;;;;4975410;28;20038;-64
2023/07/11 11:59:45;;;;;;;6.63;3.78;;;33.60;58.70;;;;;;4975535;28;20033;-65
2023/07/11 12:02:15;;;;;;;6.53;3.47;;;33.50;59.20;;;;;;4975453;28;20027;-65
2023/07/11 12:04:59;;;;;;;5.97;2.92;;;33.60;58.80;;;;;;4975299;28;20073;-66
2023/07/11 12:07:44;;;;;;;7.00;3.53;;;33.60;58.70;;;;;;4973957;28;20027;-65
2023/07/11 12:10:19;;;;;;;8.68;3.40;;;33.70;60.00;;;;;;4958087;28;20027;-66
2023/07/11 12:12:45;;;;;;;5.68;2.92;;;33.60;57.60;;;;;;4975343;28;20031;-65
2023/07/11 12:15:10;;;;;;;6.90;3.65;;;33.50;58.40;;;;;;4975112;28;20027;-64
2023/07/11 12:17:38;;;;;;;7.15;3.35;;;33.60;56.80;;;;;;4974840;28;20515;-65
2023/07/11 12:20:06;;;;;;;10.18;3.40;;;33.60;57.60;;;;;;4975239;28;20065;-65
2023/07/11 12:22:38;;;;;;;6.18;3.10;;;33.40;57.10;;;;;;4975113;28;20029;-65
2023/07/11 12:25:06;;;;;;;6.85;3.30;;;33.40;58.90;;;;;;4974972;28;20649;-65
2023/07/11 12:27:34;;;;;;;7.90;3.13;;;33.50;59.00;;;;;;4974766;28;20030;-66
2023/07/11 12:30:13;;;;;;;5.55;2.97;;;33.40;58.60;;;;;;4974867;28;20077;-65
2023/07/11 12:32:50;;;;;;;5.57;3.50;;;33.40;58.60;;;;;;4974962;28;20392;-65
2023/07/11 12:35:32;;;;;;;5.15;3.40;;;33.50;59.40;;;;;;4974777;28;20085;-65
2023/07/11 12:38:00;;;;;;;7.70;3.75;;;33.40;59.40;;;;;;4974498;28;20030;-64
2023/07/11 12:41:03;;;;;;;5.65;3.50;;;33.40;58.90;;;;;;4974720;28;20077;-64
2023/07/11 12:43:36;;;;;;;7.82;3.72;;;33.30;59.60;;;;;;4974755;28;20026;-65
2023/07/11 12:46:13;;;;;;;6.03;3.75;;;33.40;59.50;;;;;;4974603;28;20027;-65
2023/07/11 12:48:46;;;;;;;10.85;3.53;;;33.40;59.60;;;;;;4974430;28;20030;-65
2023/07/11 12:51:25;;;;;;;;;;;33.30;58.30;;;;;;4974985;28;20034;-65
2023/07/11 12:53:57;;;;;;;6.20;4.13;;;33.30;59.80;;;;;;4974591;28;19965;-65
2023/07/11 12:56:23;;;;;;;7.93;3.92;;;33.40;57.80;;;;;;4956860;28;20027;-65
2023/07/11 12:58:49;;;;;;;8.82;4.82;;;33.30;58.60;;;;;;4974223;28;20025;-64
2023/07/11 13:01:15;;;;;;;9.05;4.90;;;33.40;57.90;;;;;;4974366;28;20054;-64